Miguelopolis, Brazil
Current Conditions -  °F | °C
As of 6:00 PM on Friday 31 Oct 2014 (Local Time) from SBUR Reporting Station
Thunderstorm Thunderstorm  
Wind Chill: 77°   Ceiling: Unl
Heat Index: 79°   Visibility: 6mi
Dew Point: 63°   Wind: 12mph
Humidity: 61%   Direction: 100°E
Pressure: 29.97"   Gusts: NA
Location:  20.18°S, 48.03°W
Report Text: SBUR 312000Z 10010KT 9999 TS VCSH SCT040 FEW050CB SCT100 25/17 Q1015
Loading
Personal Weather Stations






























Interactive Weather Map
Tropical Storm Tracking
New forecast layout! Learn more

10-Day Weather Forecast

Advertisements
Track Severe Weather on mobile